createdAt,value
2023-05-24T00:01:26.855Z,3.25
2023-05-24T00:04:03.121Z,2.97
2023-05-24T00:06:35.881Z,3.10
2023-05-24T00:09:06.765Z,3.22
2023-05-24T00:11:36.454Z,3.58
2023-05-24T00:14:05.716Z,3.13
2023-05-24T00:16:36.806Z,3.20
2023-05-24T00:19:06.251Z,3.60
2023-05-24T00:21:37.946Z,4.10
2023-05-24T00:24:07.675Z,4.07
2023-05-24T00:26:37.124Z,3.35
2023-05-24T00:29:07.133Z,3.55
2023-05-24T00:31:36.752Z,4.13
2023-05-24T00:34:06.303Z,3.15
2023-05-24T00:36:35.613Z,3.25
2023-05-24T00:39:05.990Z,3.95
2023-05-24T00:41:36.493Z,3.35
2023-05-24T00:44:05.923Z,4.35
2023-05-24T00:46:36.616Z,3.90
2023-05-24T00:49:06.202Z,3.83
2023-05-24T00:51:36.196Z,3.67
2023-05-24T00:54:05.623Z,3.90
2023-05-24T00:56:35.301Z,3.35
2023-05-24T00:59:05.142Z,3.88
2023-05-24T01:01:34.284Z,4.28
2023-05-24T01:04:04.767Z,3.72
2023-05-24T01:06:46.016Z,3.75
2023-05-24T01:09:52.393Z,4.63
2023-05-24T01:12:29.344Z,4.00
2023-05-24T01:15:16.676Z,3.92
2023-05-24T01:18:02.682Z,3.88
2023-05-24T01:20:35.013Z,4.07
2023-05-24T01:23:54.731Z,4.72
2023-05-24T01:26:50.119Z,4.15
2023-05-24T01:29:20.326Z,5.55
2023-05-24T01:31:50.169Z,5.32
2023-05-24T01:34:20.415Z,4.22
2023-05-24T01:36:50.571Z,4.57
2023-05-24T01:39:21.150Z,5.00
2023-05-24T01:41:53.348Z,4.60
2023-05-24T01:44:37.124Z,5.03
2023-05-24T01:47:37.067Z,4.95
2023-05-24T01:50:22.922Z,4.72
2023-05-24T01:52:55.216Z,5.05
2023-05-24T01:55:29.673Z,4.25
2023-05-24T01:58:05.221Z,4.85
2023-05-24T02:00:36.083Z,4.45
2023-05-24T02:03:08.176Z,4.68
2023-05-24T02:05:38.739Z,5.55
2023-05-24T02:08:12.688Z,4.35
2023-05-24T02:10:42.847Z,4.47
2023-05-24T02:13:13.551Z,4.93
2023-05-24T02:15:42.923Z,4.43
2023-05-24T02:18:15.630Z,4.50
2023-05-24T02:20:45.485Z,4.20
2023-05-24T02:23:15.730Z,4.60
2023-05-24T02:25:45.274Z,4.45
2023-05-24T02:28:14.580Z,4.53
2023-05-24T02:30:45.908Z,5.43
2023-05-24T02:33:15.508Z,5.15
2023-05-24T02:35:45.354Z,5.65
2023-05-24T02:38:14.572Z,4.50
2023-05-24T02:40:43.992Z,5.03
2023-05-24T02:43:13.836Z,4.78
2023-05-24T02:45:43.113Z,4.45
2023-05-24T02:48:12.924Z,4.30
2023-05-24T02:50:42.716Z,5.10
2023-05-24T02:53:13.085Z,4.75
2023-05-24T02:55:45.006Z,5.13
2023-05-24T02:58:15.425Z,4.78
2023-05-24T03:00:46.811Z,5.40
2023-05-24T03:03:16.661Z,4.63
2023-05-24T03:05:47.341Z,6.30
2023-05-24T03:08:16.817Z,4.82
2023-05-24T03:10:46.283Z,4.93
2023-05-24T03:13:16.258Z,5.07
2023-05-24T03:15:45.735Z,4.60
2023-05-24T03:18:15.107Z,4.40
2023-05-24T03:20:46.646Z,5.72
2023-05-24T03:23:16.175Z,5.20
2023-05-24T03:25:46.297Z,5.03
2023-05-24T03:28:16.204Z,4.35
2023-05-24T03:30:46.375Z,6.10
2023-05-24T03:33:17.017Z,5.20
2023-05-24T03:35:46.873Z,5.35
2023-05-24T03:38:16.818Z,5.95
2023-05-24T03:40:49.287Z,5.30
2023-05-24T03:43:22.232Z,5.47
2023-05-24T03:45:58.811Z,4.95
2023-05-24T03:48:28.095Z,5.20
2023-05-24T03:50:57.647Z,4.72
2023-05-24T03:53:27.501Z,5.18
2023-05-24T03:55:57.618Z,4.50
2023-05-24T03:58:27.603Z,5.53
2023-05-24T04:00:56.730Z,6.20
2023-05-24T04:03:27.261Z,4.57
2023-05-24T04:05:57.354Z,5.13
2023-05-24T04:08:26.827Z,5.72
2023-05-24T04:10:56.166Z,5.88
2023-05-24T04:13:25.755Z,4.70
2023-05-24T04:15:56.051Z,4.95
2023-05-24T04:18:25.386Z,4.15
2023-05-24T04:20:57.279Z,5.00
2023-05-24T04:23:26.745Z,5.70
2023-05-24T04:25:56.222Z,4.20
2023-05-24T04:28:27.288Z,4.88
2023-05-24T04:30:58.921Z,4.70
2023-05-24T04:33:29.079Z,4.22
2023-05-24T04:35:58.652Z,4.53
2023-05-24T04:38:30.853Z,5.75
2023-05-24T04:41:00.794Z,4.07
2023-05-24T04:43:30.499Z,4.22
2023-05-24T04:45:59.699Z,4.05
2023-05-24T04:48:28.886Z,4.00
2023-05-24T04:50:59.910Z,5.30
2023-05-24T04:53:29.451Z,9.07
2023-05-24T04:55:58.802Z,4.55
2023-05-24T04:58:28.675Z,4.05
2023-05-24T05:03:55.083Z,5.32
2023-05-24T05:06:24.680Z,4.93
2023-05-24T05:08:54.109Z,5.05
2023-05-24T05:11:23.522Z,3.60
2023-05-24T05:13:53.036Z,4.32
2023-05-24T05:16:22.358Z,5.43
2023-05-24T05:18:53.034Z,3.80
2023-05-24T05:21:22.559Z,3.78
2023-05-24T05:23:51.991Z,3.70
2023-05-24T05:26:20.918Z,3.10
2023-05-24T05:28:50.435Z,3.42
2023-05-24T05:31:19.795Z,3.63
2023-05-24T05:33:49.038Z,3.67
2023-05-24T05:36:19.144Z,3.97
2023-05-24T05:38:48.260Z,3.22
2023-05-24T05:41:17.704Z,3.72
2023-05-24T05:43:47.392Z,3.95
2023-05-24T05:46:17.188Z,2.58
2023-05-24T05:48:46.771Z,2.55
2023-05-24T05:51:15.971Z,2.90
2023-05-24T05:53:45.705Z,3.00
2023-05-24T05:56:15.225Z,3.47
2023-05-24T05:58:44.606Z,3.22
2023-05-24T06:01:13.691Z,2.67
2023-05-24T06:03:43.309Z,2.65
2023-05-24T06:06:13.009Z,3.25
2023-05-24T06:08:42.106Z,3.17
2023-05-24T06:11:11.768Z,3.10
2023-05-24T06:13:41.065Z,3.75
2023-05-24T06:16:11.184Z,3.28
2023-05-24T06:18:47.388Z,3.72
2023-05-24T06:21:23.090Z,4.13
2023-05-24T06:23:53.025Z,3.45
2023-05-24T06:26:23.661Z,3.40
2023-05-24T06:28:53.122Z,3.50
2023-05-24T06:31:22.345Z,3.08
2023-05-24T06:34:02.740Z,2.80
2023-05-24T06:36:43.632Z,3.13
2023-05-24T06:39:14.812Z,3.25
2023-05-24T06:41:47.401Z,2.70
2023-05-24T06:44:17.667Z,3.05
2023-05-24T06:46:47.593Z,2.88
2023-05-24T06:49:17.382Z,3.92
2023-05-24T06:51:49.650Z,3.60
2023-05-24T06:56:48.949Z,3.65
2023-05-24T06:59:18.211Z,3.53
2023-05-24T07:01:47.641Z,3.63
2023-05-24T07:04:17.019Z,4.05
2023-05-24T07:06:47.240Z,3.85
2023-05-24T07:09:17.006Z,3.58
2023-05-24T07:11:46.429Z,4.00
2023-05-24T07:14:15.775Z,3.70
2023-05-24T07:16:45.075Z,4.10
2023-05-24T07:19:14.761Z,3.70
2023-05-24T07:21:44.330Z,4.68
2023-05-24T07:24:16.115Z,4.10
2023-05-24T07:26:46.041Z,4.18
2023-05-24T07:29:15.177Z,4.43
2023-05-24T07:31:44.454Z,3.63
2023-05-24T07:34:13.819Z,3.45
2023-05-24T07:36:43.336Z,4.40
2023-05-24T07:39:14.209Z,3.63
2023-05-24T07:41:43.876Z,3.38
2023-05-24T07:44:14.614Z,4.78
2023-05-24T07:46:43.939Z,3.95
2023-05-24T07:49:13.827Z,4.72
2023-05-24T07:51:43.038Z,4.95
2023-05-24T07:54:12.784Z,4.13
2023-05-24T07:56:44.276Z,3.75
2023-05-24T07:59:13.904Z,4.00
2023-05-24T08:01:43.383Z,4.70
2023-05-24T08:04:13.089Z,4.40
2023-05-24T08:06:43.001Z,4.43
2023-05-24T08:09:12.286Z,5.05
2023-05-24T08:11:43.135Z,4.07
2023-05-24T08:14:12.740Z,4.13
2023-05-24T08:16:41.884Z,4.50
2023-05-24T08:19:12.009Z,4.70
2023-05-24T08:21:42.991Z,3.88
2023-05-24T08:24:12.931Z,4.28
2023-05-24T08:26:42.370Z,4.78
2023-05-24T08:29:12.137Z,4.30
2023-05-24T08:31:41.375Z,4.18
2023-05-24T08:34:12.135Z,5.30
2023-05-24T08:36:43.269Z,4.63
2023-05-24T08:39:12.864Z,5.13
2023-05-24T08:41:43.015Z,4.30
2023-05-24T08:44:14.862Z,4.85
2023-05-24T08:46:44.977Z,4.68
2023-05-24T08:49:15.877Z,4.30
2023-05-24T08:51:46.384Z,4.90
2023-05-24T08:54:17.432Z,5.05
2023-05-24T08:56:47.141Z,5.70
2023-05-24T08:59:20.659Z,5.15
2023-05-24T09:01:54.971Z,5.13
2023-05-24T09:04:25.662Z,6.43
2023-05-24T09:06:57.915Z,4.90
2023-05-24T09:09:30.380Z,4.40
2023-05-24T09:12:03.226Z,4.35
2023-05-24T09:17:02.274Z,4.78
2023-05-24T09:19:31.603Z,5.28
2023-05-24T09:22:01.911Z,4.30
2023-05-24T09:24:31.822Z,4.70
2023-05-24T09:27:08.328Z,4.13
2023-05-24T09:29:42.544Z,3.97
2023-05-24T09:32:12.091Z,4.70
2023-05-24T09:34:43.200Z,5.15
2023-05-24T09:37:20.371Z,4.63
2023-05-24T09:39:54.103Z,5.63
2023-05-24T09:42:29.651Z,5.38
2023-05-24T09:45:11.572Z,5.07
2023-05-24T09:47:44.286Z,4.75
2023-05-24T09:50:18.468Z,5.27
2023-05-24T09:52:48.085Z,4.40
2023-05-24T09:55:19.290Z,4.55
2023-05-24T09:58:15.329Z,4.80
2023-05-24T10:00:45.199Z,4.97
2023-05-24T10:03:16.443Z,4.47
2023-05-24T10:05:49.392Z,5.30
2023-05-24T10:10:48.890Z,5.03
2023-05-24T10:13:20.499Z,4.70
2023-05-24T10:15:56.595Z,4.60
2023-05-24T10:18:26.247Z,4.28
2023-05-24T10:21:01.995Z,4.97
2023-05-24T10:23:33.727Z,5.10
2023-05-24T10:26:09.919Z,4.25
2023-05-24T10:28:54.396Z,4.88
2023-05-24T10:31:30.162Z,4.78
2023-05-24T10:34:07.975Z,5.75
2023-05-24T10:36:45.204Z,4.78
2023-05-24T10:39:15.220Z,5.00
2023-05-24T10:41:45.177Z,4.80
2023-05-24T10:44:20.737Z,4.43
2023-05-24T10:47:19.072Z,5.10
2023-05-24T10:49:54.051Z,5.13
2023-05-24T10:52:23.548Z,4.70
2023-05-24T10:55:10.719Z,5.00
2023-05-24T10:57:42.362Z,5.20
2023-05-24T11:00:35.313Z,4.50
2023-05-24T11:03:24.837Z,4.57
2023-05-24T11:05:56.172Z,4.70
2023-05-24T11:08:34.453Z,5.28
2023-05-24T11:11:24.363Z,5.13
2023-05-24T11:13:58.950Z,6.72
2023-05-24T11:16:55.056Z,5.18
2023-05-24T11:19:36.928Z,5.63
2023-05-24T11:22:09.438Z,4.68
2023-05-24T11:24:39.533Z,5.22
2023-05-24T11:27:09.716Z,5.22
2023-05-24T11:29:46.308Z,5.05
2023-05-24T11:32:20.636Z,5.03
2023-05-24T11:34:51.230Z,4.90
2023-05-24T11:37:28.673Z,5.82
2023-05-24T11:40:06.480Z,5.57
2023-05-24T11:42:38.641Z,4.75
2023-05-24T11:45:11.765Z,5.47
2023-05-24T11:47:41.898Z,4.80
2023-05-24T11:50:11.848Z,4.63
2023-05-24T11:52:42.583Z,5.13
2023-05-24T11:55:16.653Z,5.25
2023-05-24T11:57:55.750Z,5.25
2023-05-24T12:00:29.239Z,5.53
2023-05-24T12:03:06.470Z,4.95
2023-05-24T12:05:38.453Z,5.47
2023-05-24T12:08:13.522Z,4.70
2023-05-24T12:10:45.321Z,5.63
2023-05-24T12:13:27.099Z,4.40
2023-05-24T12:15:59.394Z,5.03
2023-05-24T12:21:00.399Z,5.05
2023-05-24T12:23:33.067Z,5.45
2023-05-24T12:26:03.436Z,5.00
2023-05-24T12:28:41.447Z,5.20
2023-05-24T12:31:12.037Z,6.10
2023-05-24T12:33:42.398Z,5.75
2023-05-24T12:36:12.712Z,6.85
2023-05-24T12:38:42.272Z,5.78
2023-05-24T12:41:14.285Z,7.95
2023-05-24T12:43:45.590Z,6.25
2023-05-24T12:46:15.089Z,4.78
2023-05-24T12:48:45.334Z,5.80
2023-05-24T12:51:14.774Z,5.88
2023-05-24T12:53:44.610Z,5.72
2023-05-24T12:56:14.012Z,4.80
2023-05-24T12:58:43.852Z,5.05
2023-05-24T13:01:13.780Z,5.40
2023-05-24T13:03:43.114Z,5.43
2023-05-24T13:06:13.262Z,6.38
2023-05-24T13:08:43.364Z,5.78
2023-05-24T13:11:12.903Z,5.55
2023-05-24T13:13:42.312Z,5.22
2023-05-24T13:16:12.190Z,5.30
2023-05-24T13:18:41.543Z,5.40
2023-05-24T13:21:12.328Z,5.50
2023-05-24T13:23:44.476Z,6.78
2023-05-24T13:26:14.177Z,7.60
2023-05-24T13:29:07.684Z,6.38
2023-05-24T13:31:33.830Z,8.60
2023-05-24T13:34:04.185Z,8.95
2023-05-24T13:36:33.558Z,5.75
2023-05-24T13:39:14.864Z,5.63
2023-05-24T13:41:46.122Z,5.47
2023-05-24T13:44:17.724Z,5.05
2023-05-24T13:46:48.300Z,5.18
2023-05-24T13:49:18.386Z,4.97
2023-05-24T13:51:48.235Z,7.13
2023-05-24T13:54:18.760Z,7.68
2023-05-24T13:56:50.142Z,6.90
2023-05-24T13:59:20.202Z,6.90
2023-05-24T14:01:49.660Z,6.68
2023-05-24T14:04:19.020Z,7.10
2023-05-24T14:06:49.505Z,7.32
2023-05-24T14:09:22.340Z,7.05
2023-05-24T14:11:52.070Z,5.90
2023-05-24T14:14:58.548Z,5.85
2023-05-24T14:17:12.453Z,6.20
2023-05-24T14:19:42.099Z,5.82
2023-05-24T14:22:11.364Z,5.82
2023-05-24T14:24:40.645Z,5.30
2023-05-24T14:27:10.195Z,4.82
2023-05-24T14:29:39.603Z,5.40
2023-05-24T14:32:09.496Z,5.03
2023-05-24T14:34:39.294Z,4.45
2023-05-24T14:37:08.844Z,4.80
2023-05-24T14:39:37.999Z,5.63
2023-05-24T14:42:08.208Z,4.47
2023-05-24T14:44:37.661Z,4.35
2023-05-24T14:47:07.659Z,4.95
2023-05-24T14:49:37.330Z,5.70
2023-05-24T14:52:06.883Z,6.00
2023-05-24T14:54:36.873Z,7.32
2023-05-24T14:57:08.378Z,6.90
2023-05-24T14:59:38.563Z,6.70
2023-05-24T15:02:08.874Z,6.90
2023-05-24T15:04:38.576Z,9.55
2023-05-24T15:07:07.911Z,7.47
2023-05-24T15:09:37.430Z,8.60
2023-05-24T15:12:08.816Z,7.43
2023-05-24T15:14:39.247Z,8.63
2023-05-24T15:17:09.067Z,8.13
2023-05-24T15:19:38.883Z,8.10
2023-05-24T15:22:11.704Z,9.48
2023-05-24T15:24:41.867Z,9.30
2023-05-24T15:27:12.174Z,9.50
2023-05-24T15:29:41.562Z,9.93
2023-05-24T15:32:10.859Z,9.35
2023-05-24T15:34:40.733Z,10.45
2023-05-24T15:37:09.910Z,9.65
2023-05-24T15:39:40.038Z,9.85
2023-05-24T15:42:09.298Z,9.02
2023-05-24T15:44:39.168Z,7.78
2023-05-24T15:47:08.986Z,6.80
2023-05-24T15:49:40.658Z,7.38
2023-05-24T15:52:11.307Z,6.55
2023-05-24T15:54:42.044Z,6.05
2023-05-24T15:57:11.918Z,5.68
2023-05-24T15:59:41.822Z,6.47
2023-05-24T16:02:12.430Z,6.07
2023-05-24T16:04:42.016Z,7.22
2023-05-24T16:07:11.501Z,5.75
2023-05-24T16:09:42.175Z,5.70
2023-05-24T16:12:11.481Z,6.13
2023-05-24T16:14:40.842Z,5.07
2023-05-24T16:17:11.589Z,4.95
2023-05-24T16:19:41.103Z,5.43
2023-05-24T16:22:10.901Z,6.03
2023-05-24T16:24:40.318Z,5.65
2023-05-24T16:27:10.429Z,5.32
2023-05-24T16:29:40.609Z,5.68
2023-05-24T16:32:10.265Z,5.40
2023-05-24T16:34:55.443Z,6.82
2023-05-24T16:37:26.888Z,5.53
2023-05-24T16:39:56.361Z,5.63
2023-05-24T16:42:25.836Z,5.57
2023-05-24T16:44:55.859Z,5.22
2023-05-24T16:47:25.774Z,6.65
2023-05-24T16:49:57.599Z,6.30
2023-05-24T16:52:27.149Z,5.20
2023-05-24T16:54:56.756Z,5.97
2023-05-24T16:57:26.082Z,5.03
2023-05-24T16:59:55.506Z,5.28
2023-05-24T17:02:24.808Z,5.38
2023-05-24T17:04:55.056Z,5.38
2023-05-24T17:07:24.460Z,5.57
2023-05-24T17:09:54.485Z,5.90
2023-05-24T17:12:24.069Z,4.93
2023-05-24T17:14:53.951Z,5.40
2023-05-24T17:17:24.169Z,4.80
2023-05-24T17:19:54.027Z,5.28
2023-05-24T17:22:23.330Z,4.60
2023-05-24T17:24:52.651Z,5.38
2023-05-24T17:30:07.643Z,4.60
2023-05-24T17:32:37.869Z,5.05
2023-05-24T17:35:08.208Z,5.20
2023-05-24T17:37:38.306Z,4.97
2023-05-24T17:40:08.819Z,5.10
2023-05-24T17:42:38.653Z,4.93
2023-05-24T17:45:08.510Z,4.40
2023-05-24T17:47:38.049Z,4.82
2023-05-24T17:50:07.995Z,5.10
2023-05-24T17:52:37.692Z,5.45
2023-05-24T17:55:09.782Z,5.05
2023-05-24T17:57:39.410Z,6.13
2023-05-24T18:00:09.597Z,5.28
2023-05-24T18:02:47.827Z,5.18
2023-05-24T18:05:18.011Z,4.80
2023-05-24T18:07:47.772Z,4.65
2023-05-24T18:10:17.621Z,5.53
2023-05-24T18:12:47.883Z,5.35
2023-05-24T18:15:17.951Z,5.05
2023-05-24T18:17:47.631Z,4.55
2023-05-24T18:20:17.853Z,4.43
2023-05-24T18:22:48.255Z,5.63
2023-05-24T18:25:18.102Z,4.47
2023-05-24T18:27:47.907Z,4.35
2023-05-24T18:30:17.711Z,5.22
2023-05-24T18:33:03.453Z,5.57
2023-05-24T18:35:35.792Z,4.22
2023-05-24T18:38:06.323Z,4.50
2023-05-24T18:40:35.794Z,4.40
2023-05-24T18:43:05.125Z,4.93
2023-05-24T18:45:34.922Z,4.40
2023-05-24T18:48:04.261Z,4.38
2023-05-24T18:50:33.716Z,4.10
2023-05-24T18:53:03.161Z,4.05
2023-05-24T18:55:32.313Z,4.32
2023-05-24T18:58:01.860Z,4.25
2023-05-24T19:00:31.460Z,3.58
2023-05-24T19:03:01.008Z,4.35
2023-05-24T19:05:30.522Z,3.90
2023-05-24T19:08:00.478Z,4.40
2023-05-24T19:10:30.026Z,4.43
2023-05-24T19:12:59.585Z,3.65
2023-05-24T19:15:29.921Z,3.70
2023-05-24T19:17:59.473Z,4.68
2023-05-24T19:20:28.981Z,4.60
2023-05-24T19:22:58.659Z,3.45
2023-05-24T19:25:28.260Z,4.07
2023-05-24T19:27:59.979Z,3.67
2023-05-24T19:30:30.194Z,4.75
2023-05-24T19:32:59.745Z,3.35
2023-05-24T19:35:30.027Z,3.35
2023-05-24T19:37:59.801Z,3.50
2023-05-24T19:40:28.971Z,3.95
2023-05-24T19:42:58.254Z,3.50
2023-05-24T19:45:27.665Z,4.03
2023-05-24T19:47:57.159Z,3.35
2023-05-24T19:50:30.531Z,3.63
2023-05-24T19:53:00.675Z,3.05
2023-05-24T19:55:30.539Z,3.28
2023-05-24T19:58:00.568Z,3.65
2023-05-24T20:00:30.035Z,3.42
2023-05-24T20:02:59.681Z,4.25
2023-05-24T20:05:29.688Z,4.22
2023-05-24T20:07:59.754Z,4.25
2023-05-24T20:10:31.084Z,4.20
2023-05-24T20:13:00.865Z,5.45
2023-05-24T20:15:30.293Z,4.78
2023-05-24T20:18:00.403Z,5.97
2023-05-24T20:20:29.951Z,4.95
2023-05-24T20:22:59.763Z,5.15
2023-05-24T20:25:29.073Z,5.28
2023-05-24T20:27:58.682Z,5.50
2023-05-24T20:30:28.637Z,5.50
2023-05-24T20:32:58.610Z,4.80
2023-05-24T20:35:27.867Z,4.40
2023-05-24T20:37:57.232Z,4.65
2023-05-24T20:40:26.929Z,4.80
2023-05-24T20:42:56.637Z,4.30
2023-05-24T20:45:26.034Z,4.90
2023-05-24T20:47:56.203Z,4.22
2023-05-24T20:50:25.727Z,4.95
2023-05-24T20:52:54.959Z,4.97
2023-05-24T20:55:26.474Z,4.50
2023-05-24T20:57:56.697Z,4.20
2023-05-24T21:00:26.584Z,4.50
2023-05-24T21:02:56.093Z,4.43
2023-05-24T21:05:25.893Z,3.85
2023-05-24T21:07:55.069Z,4.10
2023-05-24T21:10:24.641Z,3.72
2023-05-24T21:12:54.167Z,3.80
2023-05-24T21:15:23.515Z,3.47
2023-05-24T21:17:52.840Z,3.58
2023-05-24T21:20:22.452Z,3.63
2023-05-24T21:22:52.443Z,2.88
2023-05-24T21:25:21.942Z,2.97
2023-05-24T21:27:51.721Z,2.75
2023-05-24T21:30:20.936Z,4.05
2023-05-24T21:32:50.606Z,2.78
2023-05-24T21:35:19.901Z,2.30
2023-05-24T21:37:49.341Z,2.38
2023-05-24T21:40:19.341Z,2.20
2023-05-24T21:42:48.356Z,2.10
2023-05-24T21:45:18.477Z,1.98
2023-05-24T21:47:47.557Z,1.98
2023-05-24T21:50:16.887Z,1.50
2023-05-24T21:52:46.616Z,1.63
2023-05-24T21:55:15.890Z,1.90
2023-05-24T21:57:45.110Z,1.80
2023-05-24T22:00:15.379Z,2.00
2023-05-24T22:02:44.832Z,1.75
2023-05-24T22:05:14.653Z,1.90
2023-05-24T22:07:44.598Z,1.75
2023-05-24T22:10:13.850Z,1.95
2023-05-24T22:12:43.502Z,1.88
2023-05-24T22:15:12.695Z,1.48
2023-05-24T22:17:42.946Z,1.90
2023-05-24T22:20:12.998Z,1.90
2023-05-24T22:22:49.486Z,1.73
2023-05-24T22:25:20.591Z,1.65
2023-05-24T22:27:50.240Z,1.85
2023-05-24T22:30:20.553Z,1.95
2023-05-24T22:32:49.946Z,1.80
2023-05-24T22:35:20.637Z,1.77
2023-05-24T22:37:50.211Z,1.83
2023-05-24T22:40:19.647Z,2.05
2023-05-24T22:42:48.983Z,1.80
2023-05-24T22:45:19.694Z,1.58
2023-05-24T22:47:50.121Z,1.73
2023-05-24T22:50:19.646Z,3.25
2023-05-24T22:52:49.643Z,1.75
2023-05-24T22:55:19.412Z,1.50
2023-05-24T22:57:48.602Z,1.70
2023-05-24T23:00:18.297Z,2.10
2023-05-24T23:02:48.059Z,1.35
2023-05-24T23:05:17.438Z,1.67
2023-05-24T23:07:47.186Z,1.50
2023-05-24T23:10:16.525Z,1.70
2023-05-24T23:12:45.567Z,1.85
2023-05-24T23:15:18.013Z,1.95
2023-05-24T23:17:49.135Z,1.70
2023-05-24T23:20:18.740Z,1.50
2023-05-24T23:22:48.012Z,1.80
2023-05-24T23:25:17.160Z,1.52
2023-05-24T23:27:46.671Z,2.00
2023-05-24T23:30:15.978Z,1.67
2023-05-24T23:32:45.644Z,1.77
2023-05-24T23:35:15.517Z,1.60
2023-05-24T23:37:44.933Z,1.65
2023-05-24T23:40:14.685Z,1.85
2023-05-24T23:42:44.248Z,1.70
2023-05-24T23:45:16.432Z,1.80
2023-05-24T23:47:46.747Z,2.10
2023-05-24T23:50:18.639Z,1.92
2023-05-24T23:52:48.440Z,1.80
2023-05-24T23:55:18.196Z,2.00
2023-05-24T23:57:48.791Z,1.80
